NCAR-RAP Real-Time Weather Data

Output produced by METARs form (06 May 2021  16:17 UTC)
found at http://weather.rap.ucar.edu/surface/
 
KGXY 061556Z VRB03KT 10SM CLR 12/04 A3037 RMK AO2 SLP281 T01220039
KGXY 061456Z 00000KT 10SM CLR 11/04 A3039 RMK AO2 SLP288 T01110039 58001
KGXY 061356Z 00000KT 10SM CLR 07/03 A3040 RMK AO2 SLP294 T00720033
KGXY 061256Z 30003KT 10SM CLR 05/03 A3040 RMK AO2 SLP296 T00500033
KGXY 061156Z 31005KT 10SM CLR 03/02 A3039 RMK AO2 SLP293 T00280017 10067 20028 53008
KGXY 061056Z 34006KT 8SM CLR 03/02 A3037 RMK AO2 SLP288 T00330022
KGXY 060956Z 01005KT 10SM CLR 04/02 A3037 RMK AO2 SLP288 T00390022
KGXY 060856Z 01005KT 10SM CLR 05/03 A3036 RMK AO2 SLP280 T00500028 53007
KGXY 060756Z 04005KT 10SM FEW055 06/03 A3035 RMK AO2 SLP276 T00610028
KGXY 060656Z 03006KT 10SM CLR 06/03 A3034 RMK AO2 SLP281 T00560028 401670050
KGXY 060556Z 06003KT 10SM CLR 07/04 A3034 RMK AO2 SLP270 T00670039 10156 20067 51020
KGXY 060456Z 11003KT 10SM CLR 07/04 A3032 RMK AO2 SLP266 T00720044
KGXY 060356Z 12005KT 10SM FEW110 08/04 A3030 RMK AO2 SLP260 T00830044
KGXY 060256Z 13005KT 10SM CLR 10/04 A3027 RMK AO2 SLP247 T01000039 53015